Time;durP1;ratioP1;P1;durP2;ratioP2;P2;SDS_P1;SDS_P2;PMS_P1;PMS_P2;Temp;Humidity;BMP_temperature;BMP_pressure;BME280_temperature;BME280_humidity;BME280_pressure;Samples;Min_cycle;Max_cycle;Signal;HPM_P1;HPM_P2
2022/07/04 00:00:19;;;;;;;2.90;2.00;;;16.20;29.70;;;;;;5095355;28;20172;-68
2022/07/04 00:02:46;;;;;;;6.67;2.07;;;16.20;29.30;;;;;;5094428;28;20642;-68
2022/07/04 00:05:13;;;;;;;5.43;2.23;;;16.20;30.90;;;;;;5095706;28;20305;-67
2022/07/04 00:07:45;;;;;;;3.07;2.17;;;16.20;32.00;;;;;;5095148;28;20713;-68
2022/07/04 00:10:12;;;;;;;5.30;2.03;;;16.20;30.00;;;;;;5095630;28;20171;-68
2022/07/04 00:12:38;;;;;;;5.27;1.70;;;16.20;31.50;;;;;;5095365;28;20210;-67
2022/07/04 00:15:05;;;;;;;4.13;2.03;;;16.10;28.70;;;;;;5094880;28;20581;-68
2022/07/04 00:17:31;;;;;;;4.20;2.00;;;16.20;31.30;;;;;;5095344;28;20176;-67
2022/07/04 00:19:57;;;;;;;5.30;2.13;;;16.20;34.80;;;;;;5095449;28;20651;-69
2022/07/04 00:22:22;;;;;;;3.70;2.10;;;16.20;34.20;;;;;;5095264;28;20619;-69
2022/07/04 00:24:48;;;;;;;7.73;2.80;;;16.20;33.90;;;;;;5095038;28;20519;-67
2022/07/04 00:27:14;;;;;;;6.77;2.80;;;16.30;35.20;;;;;;5095390;28;20187;-69
2022/07/04 00:29:39;;;;;;;7.20;2.73;;;16.30;33.10;;;;;;5094690;28;20168;-68
2022/07/04 00:32:05;;;;;;;6.37;2.87;;;16.30;31.70;;;;;;5094989;28;20202;-69
2022/07/04 00:34:31;;;;;;;6.53;2.80;;;16.40;29.80;;;;;;5094979;28;20181;-69
2022/07/04 00:36:57;;;;;;;8.10;3.00;;;16.40;29.70;;;;;;5094806;28;20172;-68
2022/07/04 00:39:23;;;;;;;6.93;3.07;;;16.50;30.00;;;;;;5094800;28;20164;-67
2022/07/04 00:41:48;;;;;;;5.10;2.90;;;16.50;31.50;;;;;;5094771;28;20245;-68
2022/07/04 00:44:17;;;;;;;3.20;2.90;;;16.40;32.50;;;;;;5094304;28;20172;-67
2022/07/04 00:46:44;;;;;;;4.87;2.90;;;16.40;34.10;;;;;;5094225;28;20334;-67
2022/07/04 00:49:11;;;;;;;5.87;2.93;;;16.40;38.40;;;;;;5094272;28;20239;-67
2022/07/04 00:51:38;;;;;;;3.30;2.67;;;16.30;37.90;;;;;;5094512;28;20196;-67
2022/07/04 00:54:06;;;;;;;4.77;3.10;;;16.30;39.40;;;;;;5094382;28;20176;-68
2022/07/04 00:56:31;;;;;;;4.00;3.07;;;16.30;38.00;;;;;;5094422;28;20239;-67
2022/07/04 00:58:59;;;;;;;3.97;2.73;;;16.30;39.70;;;;;;5094189;28;20716;-68
2022/07/04 01:01:25;;;;;;;7.83;3.00;;;16.20;42.60;;;;;;5094355;28;20172;-68
2022/07/04 01:03:51;;;;;;;6.77;2.83;;;16.20;42.20;;;;;;5094355;28;20671;-68
2022/07/04 01:06:18;;;;;;;5.27;2.87;;;16.20;41.80;;;;;;5093240;28;20275;-67
2022/07/04 01:08:44;;;;;;;7.37;3.00;;;16.30;38.70;;;;;;5093994;28;20376;-68
2022/07/04 01:11:10;;;;;;;8.20;3.43;;;16.20;40.40;;;;;;5094248;28;20175;-68
2022/07/04 01:13:36;;;;;;;3.37;2.90;;;16.10;43.10;;;;;;5093757;28;20658;-68
2022/07/04 01:16:05;;;;;;;4.23;2.70;;;16.00;45.70;;;;;;5093744;28;20211;-68
2022/07/04 01:18:31;;;;;;;5.70;2.67;;;16.00;49.90;;;;;;5093935;28;20182;-68
2022/07/04 01:20:57;;;;;;;4.57;2.77;;;15.90;49.80;;;;;;5094082;28;20250;-68
2022/07/04 01:23:22;;;;;;;5.00;3.00;;;15.90;50.50;;;;;;5093835;28;20167;-68
2022/07/04 01:25:52;;;;;;;2.93;2.50;;;15.90;48.60;;;;;;5093524;28;20168;-68
2022/07/04 01:28:21;;;;;;;4.33;2.60;;;15.90;48.80;;;;;;5094133;28;20194;-68
2022/07/04 01:30:47;;;;;;;3.40;2.70;;;15.90;50.60;;;;;;5093795;28;20212;-68
2022/07/04 01:33:14;;;;;;;7.47;2.73;;;15.90;48.00;;;;;;5093841;28;20171;-68
2022/07/04 01:35:39;;;;;;;2.77;2.57;;;15.80;53.40;;;;;;5093715;28;20203;-68
2022/07/04 01:38:05;;;;;;;5.27;2.27;;;15.80;58.00;;;;;;5093757;28;20689;-68
2022/07/04 01:40:30;;;;;;;4.83;2.50;;;15.80;55.30;;;;;;5093294;28;20176;-68
2022/07/04 01:42:58;;;;;;;3.73;2.67;;;15.90;52.60;;;;;;5093854;28;20251;-67
2022/07/04 01:45:24;;;;;;;6.20;2.43;;;15.80;47.20;;;;;;5093716;28;20179;-67
2022/07/04 01:47:49;;;;;;;6.73;2.60;;;15.70;48.00;;;;;;5093726;28;20179;-67
2022/07/04 01:50:15;;;;;;;4.73;2.53;;;15.70;52.40;;;;;;5093580;28;20532;-67
2022/07/04 01:52:41;;;;;;;4.20;2.27;;;15.80;51.90;;;;;;5093525;28;20217;-67
2022/07/04 01:55:09;;;;;;;5.83;2.50;;;15.80;48.20;;;;;;5092906;28;20609;-68
2022/07/04 01:57:35;;;;;;;4.93;2.73;;;15.80;47.60;;;;;;5093456;28;20635;-68
2022/07/04 02:02:45;;;;;;;4.93;2.50;;;15.80;52.20;;;;;;5093497;28;20178;-69
2022/07/04 02:05:10;;;;;;;6.23;2.50;;;15.70;55.60;;;;;;5093372;28;20168;-69
2022/07/04 02:07:36;;;;;;;5.53;2.13;;;15.70;57.60;;;;;;5092876;28;20701;-68
2022/07/04 02:10:02;;;;;;;3.67;2.40;;;15.60;57.40;;;;;;5093283;28;20171;-67
2022/07/04 02:13:28;;;;;;;4.17;2.47;;;15.60;56.50;;;;;;5093596;28;20168;-69
2022/07/04 02:15:22;;;;;;;5.93;2.27;;;15.60;56.60;;;;;;5084094;28;20215;-66
2022/07/04 02:17:48;;;;;;;4.03;2.23;;;15.60;57.30;;;;;;5093311;28;20176;-67
2022/07/04 02:20:14;;;;;;;3.73;2.47;;;15.60;53.10;;;;;;5093174;28;20176;-67
2022/07/04 02:22:40;;;;;;;5.60;2.40;;;15.60;53.60;;;;;;5093353;28;20172;-66
2022/07/04 02:25:06;;;;;;;4.57;2.30;;;15.60;51.10;;;;;;5092996;28;20171;-68
2022/07/04 02:27:32;;;;;;;4.30;3.10;;;15.60;51.70;;;;;;5093101;28;20164;-67
2022/07/04 02:29:57;;;;;;;5.77;2.60;;;15.60;53.00;;;;;;5093317;28;20251;-68
2022/07/04 02:32:23;;;;;;;5.57;2.83;;;15.50;54.30;;;;;;5093102;28;20200;-68
2022/07/04 02:34:49;;;;;;;3.60;2.30;;;15.50;59.80;;;;;;5092902;28;20179;-68
2022/07/04 02:37:14;;;;;;;7.77;2.97;;;15.50;62.60;;;;;;5093145;28;20567;-68
2022/07/04 02:39:40;;;;;;;4.03;2.60;;;15.40;66.80;;;;;;5092701;28;20273;-67
2022/07/04 02:42:06;;;;;;;5.70;2.57;;;15.40;67.20;;;;;;5092896;28;20650;-67
2022/07/04 02:44:31;;;;;;;4.03;2.43;;;15.40;67.40;;;;;;5093055;28;20168;-67
2022/07/04 02:46:57;;;;;;;5.00;2.53;;;15.40;67.50;;;;;;5093012;28;20641;-68
2022/07/04 02:49:23;;;;;;;4.57;2.50;;;15.40;64.00;;;;;;5092960;28;20179;-68
2022/07/04 02:51:49;;;;;;;7.07;2.53;;;15.40;69.80;;;;;;5092929;28;20192;-67
2022/07/04 02:54:15;;;;;;;4.63;3.23;;;15.30;71.90;;;;;;5092603;28;20535;-67
2022/07/04 02:56:41;;;;;;;6.93;2.80;;;15.20;75.20;;;;;;5092979;28;20257;-67
2022/07/04 02:59:07;;;;;;;5.33;2.70;;;15.20;78.10;;;;;;5093009;28;20164;-68
2022/07/04 03:01:33;;;;;;;4.33;2.90;;;15.20;79.70;;;;;;5091667;28;20179;-68
2022/07/04 03:03:58;;;;;;;3.80;2.60;;;15.30;79.20;;;;;;5091578;28;20583;-68
2022/07/04 03:06:24;;;;;;;5.37;2.60;;;15.20;78.20;;;;;;5092857;28;20251;-69
2022/07/04 03:08:52;;;;;;;5.00;2.87;;;15.20;79.40;;;;;;5092412;28;20227;-68
2022/07/04 03:11:18;;;;;;;5.57;2.47;;;15.20;74.10;;;;;;5094608;28;20211;-68
2022/07/04 03:13:44;;;;;;;2.77;2.57;;;15.20;76.50;;;;;;5096219;28;20172;-67
2022/07/04 03:16:10;;;;;;;6.10;2.57;;;15.20;74.50;;;;;;5094709;28;20269;-67
2022/07/04 03:18:36;;;;;;;6.20;2.70;;;15.10;73.10;;;;;;5096383;28;20207;-68
2022/07/04 03:21:04;;;;;;;3.83;2.87;;;15.10;76.90;;;;;;5096317;28;20186;-68
2022/07/04 03:23:31;;;;;;;5.33;2.67;;;15.10;72.90;;;;;;5095873;28;20643;-68
2022/07/04 03:25:56;;;;;;;3.73;2.43;;;15.10;72.30;;;;;;5096130;28;20199;-67
2022/07/04 03:28:22;;;;;;;3.53;2.50;;;15.10;69.70;;;;;;5096225;28;20195;-67
2022/07/04 03:30:47;;;;;;;6.10;2.53;;;15.10;71.20;;;;;;5095726;28;20165;-67
2022/07/04 03:33:13;;;;;;;5.77;2.50;;;15.10;68.90;;;;;;5096182;28;20172;-67
2022/07/04 03:35:39;;;;;;;3.13;2.50;;;15.10;59.50;;;;;;5095302;28;20294;-67
2022/07/04 03:38:04;;;;;;;4.17;2.63;;;15.10;58.20;;;;;;5095649;28;20532;-67
2022/07/04 03:40:30;;;;;;;5.20;2.70;;;15.10;57.70;;;;;;5095556;28;20179;-68
2022/07/04 03:42:57;;;;;;;3.53;2.70;;;15.20;56.00;;;;;;5096030;28;20164;-67
2022/07/04 03:45:23;;;;;;;3.80;3.27;;;15.20;54.40;;;;;;5095571;28;20219;-70
2022/07/04 03:47:49;;;;;;;4.50;2.30;;;15.10;53.60;;;;;;5095510;28;20176;-68
2022/07/04 03:50:15;;;;;;;3.50;2.20;;;15.20;52.50;;;;;;5094940;28;20558;-67
2022/07/04 03:52:40;;;;;;;2.83;2.23;;;15.30;44.10;;;;;;5094956;28;20286;-67
2022/07/04 03:55:07;;;;;;;3.63;2.13;;;15.60;43.60;;;;;;5095210;28;20215;-67
2022/07/04 03:57:32;;;;;;;4.30;2.37;;;16.00;27.80;;;;;;5094183;28;20180;-67
2022/07/04 03:59:58;;;;;;;4.07;2.20;;;16.40;15.40;;;;;;5095345;28;20168;-67
2022/07/04 04:02:23;;;;;;;3.70;2.20;;;16.90;1.00;;;;;;5095529;28;20182;-67
2022/07/04 04:07:33;;;;;;;4.43;2.30;;;17.50;1.00;;;;;;5094753;28;20230;-68
2022/07/04 04:09:58;;;;;;;7.33;2.93;;;17.80;1.00;;;;;;5094877;28;20579;-68
2022/07/04 04:12:24;;;;;;;3.67;2.40;;;18.10;1.00;;;;;;5093854;28;20176;-67
2022/07/04 04:14:50;;;;;;;4.57;2.30;;;18.50;1.00;;;;;;5092778;28;20213;-68
2022/07/04 04:17:15;;;;;;;3.70;1.90;;;19.10;1.00;;;;;;5095099;28;20203;-68
2022/07/04 04:19:41;;;;;;;8.85;2.58;;;19.40;1.00;;;;;;5094981;28;20167;-69
2022/07/04 04:22:07;;;;;;;8.90;2.03;;;19.90;99.90;;;;;;5092911;28;20627;-68
2022/07/04 04:24:32;;;;;;;4.38;1.80;;;20.30;1.00;;;;;;5094586;28;20203;-69
2022/07/04 04:26:58;;;;;;;5.80;2.58;;;21.00;1.00;;;;;;5094599;28;20221;-69
2022/07/04 04:29:23;;;;;;;3.13;2.25;;;21.50;1.00;;;;;;5094480;28;20199;-69
2022/07/04 04:31:49;;;;;;;3.85;1.90;;;22.20;1.00;;;;;;5094543;28;20632;-68
2022/07/04 04:34:14;;;;;;;3.35;2.00;;;22.60;26.20;;;;;;5094288;28;20179;-69
2022/07/04 04:36:40;;;;;;;5.03;1.98;;;23.10;1.00;;;;;;5094160;28;20582;-69
2022/07/04 04:39:06;;;;;;;5.38;2.17;;;23.10;1.00;;;;;;5094633;28;20171;-69
2022/07/04 04:41:31;;;;;;;4.82;1.85;;;22.80;23.00;;;;;;5093186;28;20194;-69
2022/07/04 04:43:57;;;;;;;2.33;2.00;;;23.60;1.00;;;;;;5094383;28;20687;-69
2022/07/04 04:46:22;;;;;;;2.88;2.00;;;24.50;1.00;;;;;;5094595;28;20180;-69
2022/07/04 04:48:48;;;;;;;7.80;2.38;;;24.90;1.00;;;;;;5093764;28;20641;-69
2022/07/04 04:51:14;;;;;;;5.00;2.53;;;25.20;1.00;;;;;;5093629;28;20240;-69
2022/07/04 04:53:39;;;;;;;4.95;2.15;;;25.40;1.00;;;;;;5094061;28;20164;-69
2022/07/04 04:56:05;;;;;;;3.72;1.85;;;25.20;1.00;;;;;;5094054;28;20242;-69
2022/07/04 04:58:30;;;;;;;10.43;2.28;;;24.40;1.00;;;;;;5093658;28;20202;-69
2022/07/04 05:00:56;;;;;;;3.38;2.35;;;25.10;1.00;;;;;;5092526;28;20219;-69
2022/07/04 05:03:22;;;;;;;5.28;2.00;;;25.40;1.00;;;;;;5093468;28;20183;-69
2022/07/04 05:05:47;;;;;;;3.72;1.90;;;25.60;99.90;;;;;;5093745;28;20222;-69
2022/07/04 05:08:13;;;;;;;4.35;2.00;;;26.40;99.90;;;;;;5093504;28;20223;-70
2022/07/04 05:10:39;;;;;;;6.25;2.17;;;27.20;99.90;;;;;;5093829;28;20252;-69
2022/07/04 05:13:05;;;;;;;3.08;1.70;;;27.40;99.90;;;;;;5093819;28;20164;-69
2022/07/04 05:15:31;;;;;;;4.95;2.25;;;27.70;99.90;;;;;;5093453;28;20207;-69
2022/07/04 05:17:57;;;;;;;2.80;1.95;;;28.40;99.90;;;;;;5093123;28;20224;-70
2022/07/04 05:20:23;;;;;;;4.15;1.77;;;29.10;99.90;;;;;;5093791;28;20623;-70
2022/07/04 05:22:48;;;;;;;5.68;2.65;;;29.00;99.90;;;;;;5093509;28;20172;-70
2022/07/04 05:25:14;;;;;;;2.92;1.95;;;29.10;99.90;;;;;;5093529;28;20190;-70
2022/07/04 05:27:40;;;;;;;4.82;2.20;;;29.10;99.90;;;;;;5092889;28;20179;-70
2022/07/04 05:30:06;;;;;;;5.85;1.92;;;29.70;99.90;;;;;;5093866;28;20175;-70
2022/07/04 05:32:32;;;;;;;3.75;2.00;;;30.40;99.90;;;;;;5093383;28;20157;-70
2022/07/04 05:34:58;;;;;;;4.03;2.28;;;30.40;99.90;;;;;;5092769;28;20197;-70
2022/07/04 05:37:23;;;;;;;3.80;2.50;;;30.90;99.90;;;;;;5093322;28;20634;-70
2022/07/04 05:39:49;;;;;;;2.85;1.88;;;31.30;99.90;;;;;;5093508;28;20608;-70
2022/07/04 05:42:15;;;;;;;4.25;2.15;;;31.20;99.90;;;;;;5092935;28;20259;-71
2022/07/04 05:44:40;;;;;;;7.78;2.00;;;30.70;99.90;;;;;;5093488;28;20172;-71
2022/07/04 05:47:06;;;;;;;4.25;2.00;;;30.90;99.90;;;;;;5091165;28;20179;-71
2022/07/04 05:49:32;;;;;;;7.22;2.33;;;31.30;99.90;;;;;;5092760;28;20195;-71
2022/07/04 05:51:57;;;;;;;4.45;2.10;;;30.80;99.90;;;;;;5092469;28;20192;-72
2022/07/04 05:54:23;;;;;;;6.85;1.98;;;31.10;99.90;;;;;;5092989;28;20624;-71
2022/07/04 05:56:49;;;;;;;3.55;2.00;;;31.90;99.90;;;;;;5092862;28;20327;-72
2022/07/04 05:59:15;;;;;;;10.90;2.85;;;31.40;99.90;;;;;;5092656;28;20183;-70
2022/07/04 06:01:40;;;;;;;8.77;2.50;;;31.50;99.90;;;;;;5092576;28;20164;-70
2022/07/04 06:04:06;;;;;;;7.57;2.40;;;31.30;99.90;;;;;;5092598;28;20160;-71
2022/07/04 06:06:32;;;;;;;6.50;1.98;;;32.10;99.90;;;;;;5092791;28;20627;-70
2022/07/04 06:08:58;;;;;;;5.63;2.20;;;32.40;98.60;;;;;;5091685;28;20234;-70
2022/07/04 06:11:24;;;;;;;4.68;2.22;;;32.10;98.90;;;;;;5092834;28;20221;-70
2022/07/04 06:13:50;;;;;;;4.93;2.00;;;33.20;94.70;;;;;;5092285;28;20172;-71
2022/07/04 06:16:16;;;;;;;4.55;2.05;;;33.40;85.10;;;;;;5092351;28;20217;-71
2022/07/04 06:18:42;;;;;;;5.47;2.40;;;33.50;76.40;;;;;;5092719;28;20262;-70
2022/07/04 06:21:08;;;;;;;6.07;2.80;;;33.80;74.70;;;;;;5092501;28;20251;-71
2022/07/04 06:23:34;;;;;;;6.25;1.80;;;34.80;64.20;;;;;;5091385;28;20703;-71
2022/07/04 06:25:59;;;;;;;5.75;2.00;;;35.20;50.50;;;;;;5092067;28;20168;-71
2022/07/04 06:28:25;;;;;;;5.68;2.42;;;34.90;45.20;;;;;;5092834;28;20190;-71
2022/07/04 06:30:51;;;;;;;2.40;1.65;;;35.40;39.10;;;;;;5091892;28;20290;-71
2022/07/04 06:33:18;;;;;;;4.57;1.88;;;35.40;37.10;;;;;;5092849;28;20179;-72
2022/07/04 06:35:56;;;;;;;5.60;2.25;;;35.10;31.10;;;;;;5092205;28;20199;-72
2022/07/04 06:38:26;;;;;;;6.38;2.30;;;35.10;32.00;;;;;;5092757;28;20172;-72
2022/07/04 06:40:58;;;;;;;5.90;1.95;;;35.20;31.80;;;;;;5092490;28;20168;-71
2022/07/04 06:43:25;;;;;;;8.38;2.22;;;33.50;30.40;;;;;;5092151;28;20176;-70
2022/07/04 06:45:50;;;;;;;2.83;2.10;;;33.10;37.30;;;;;;5094922;28;20179;-71
2022/07/04 06:48:16;;;;;;;5.72;2.58;;;33.20;34.60;;;;;;5096624;28;20176;-71
2022/07/04 06:50:42;;;;;;;3.83;1.90;;;32.60;37.90;;;;;;5096105;28;20647;-71
2022/07/04 06:53:09;;;;;;;5.30;2.00;;;32.90;37.10;;;;;;5096201;28;20287;-72
2022/07/04 06:55:37;;;;;;;5.10;2.47;;;32.80;39.70;;;;;;5096532;28;20587;-72
2022/07/04 06:58:03;;;;;;;5.43;2.38;;;33.60;38.10;;;;;;5095933;28;20213;-72
2022/07/04 07:00:31;;;;;;;7.53;2.50;;;33.60;35.00;;;;;;5095774;28;20168;-72
2022/07/04 07:03:02;;;;;;;6.40;2.33;;;34.20;34.10;;;;;;5095898;28;20624;-73
2022/07/04 07:05:28;;;;;;;3.95;1.90;;;34.90;30.00;;;;;;5095811;28;20258;-71
2022/07/04 07:07:54;;;;;;;3.83;2.10;;;35.20;25.80;;;;;;5095562;28;20287;-72
2022/07/04 07:10:20;;;;;;;8.38;3.10;;;36.40;21.30;;;;;;5095510;28;20193;-73
2022/07/04 07:12:46;;;;;;;7.15;3.08;;;37.30;13.80;;;;;;5095734;28;20171;-72
2022/07/04 07:15:13;;;;;;;3.83;1.85;;;37.40;11.00;;;;;;5094804;28;20184;-73
2022/07/04 07:17:39;;;;;;;3.95;1.80;;;36.60;21.10;;;;;;5095676;28;20176;-73
2022/07/04 07:20:05;;;;;;;7.90;2.30;;;34.90;12.30;;;;;;5096104;28;20171;-72
2022/07/04 07:22:31;;;;;;;4.25;2.20;;;34.60;11.40;;;;;;5095639;28;20176;-72
2022/07/04 07:24:57;;;;;;;6.90;2.35;;;34.80;12.40;;;;;;5095587;28;20233;-72
2022/07/04 07:27:22;;;;;;;5.55;2.22;;;35.00;11.10;;;;;;5096098;28;20180;-71
2022/07/04 07:29:48;;;;;;;4.80;2.28;;;34.90;11.60;;;;;;5094566;28;20168;-72
2022/07/04 07:32:14;;;;;;;15.38;3.28;;;35.70;10.20;;;;;;5090164;28;20532;-69
2022/07/04 07:34:40;;;;;;;5.18;1.73;;;35.20;11.10;;;;;;5084547;28;20205;-69
2022/07/04 07:37:06;;;;;;;4.90;2.00;;;35.50;7.10;;;;;;5081070;28;20212;-69
2022/07/04 07:39:32;;;;;;;4.07;1.85;;;35.20;8.10;;;;;;5110891;28;20172;-68
2022/07/04 07:41:57;;;;;;;9.30;2.40;;;35.50;6.70;;;;;;5100603;28;20186;-68
2022/07/04 07:44:23;;;;;;;7.50;2.40;;;35.00;8.80;;;;;;5091918;28;20175;-71
2022/07/04 07:46:48;;;;;;;3.35;1.98;;;35.00;7.50;;;;;;5094452;28;20171;-70
2022/07/04 07:49:14;;;;;;;5.05;2.08;;;35.00;7.90;;;;;;5092686;28;20176;-71
2022/07/04 07:51:40;;;;;;;8.35;2.00;;;35.30;7.80;;;;;;5092938;28;20192;-70
2022/07/04 07:54:06;;;;;;;4.55;1.70;;;36.30;4.10;;;;;;5102497;28;20167;-69
2022/07/04 07:56:32;;;;;;;9.40;2.00;;;36.20;2.50;;;;;;5114652;28;20205;-70
2022/07/04 07:58:58;;;;;;;6.97;1.95;;;36.40;1.00;;;;;;5086978;28;20187;-71
2022/07/04 08:01:24;;;;;;;3.67;1.80;;;36.90;1.00;;;;;;5110780;28;20229;-69
2022/07/04 08:06:34;;;;;;;3.67;1.60;;;36.40;1.00;;;;;;5082470;28;20191;-73
2022/07/04 08:08:59;;;;;;;6.95;1.90;;;35.70;1.00;;;;;;5106881;28;20238;-72
2022/07/04 08:11:25;;;;;;;8.40;1.73;;;34.20;1.00;;;;;;5097617;28;20194;-71
2022/07/04 08:13:51;;;;;;;6.50;1.73;;;34.10;3.20;;;;;;5104717;28;20539;-71
2022/07/04 08:16:17;;;;;;;5.95;2.00;;;34.80;2.90;;;;;;5094746;28;20202;-76
2022/07/04 08:18:43;;;;;;;4.07;1.50;;;35.00;1.00;;;;;;5098622;28;20710;-75
2022/07/04 08:21:08;;;;;;;9.98;2.40;;;36.10;1.00;;;;;;5098698;28;20175;-73
2022/07/04 08:23:34;;;;;;;6.60;1.60;;;37.00;1.00;;;;;;5097962;28;20178;-72
2022/07/04 08:26:01;;;;;;;5.85;1.98;;;37.30;1.00;;;;;;5104526;28;20279;-73
2022/07/04 08:28:28;;;;;;;4.50;1.38;;;36.90;1.00;;;;;;5093059;28;20674;-73
2022/07/04 08:30:54;;;;;;;5.60;1.77;;;36.20;6.50;;;;;;5109214;28;20174;-72
2022/07/04 08:33:20;;;;;;;2.55;1.63;;;35.80;1.00;;;;;;5094614;28;20203;-72
2022/07/04 08:35:45;;;;;;;3.88;1.20;;;36.00;1.00;;;;;;5093057;28;20716;-74
2022/07/04 08:38:11;;;;;;;3.47;1.60;;;35.00;1.00;;;;;;5092983;28;20222;-75
2022/07/04 08:40:37;;;;;;;4.93;1.40;;;33.90;1.00;;;;;;5093682;28;20179;-75
2022/07/04 08:43:03;;;;;;;2.50;1.20;;;33.80;1.00;;;;;;5091142;28;20176;-74
2022/07/04 08:45:32;;;;;;;2.83;1.08;;;34.40;1.00;;;;;;5092944;28;20176;-74
2022/07/04 08:48:03;;;;;;;2.72;1.30;;;34.30;1.00;;;;;;5079617;28;20185;-74
2022/07/04 08:50:34;;;;;;;2.08;1.38;;;34.20;1.00;;;;;;5073592;28;20157;-74
2022/07/04 08:53:06;;;;;;;3.90;1.40;;;34.20;1.00;;;;;;5073770;28;20275;-73
2022/07/04 08:58:25;;;;;;;4.60;1.48;;;34.10;1.00;;;;;;5091111;28;20867;-72
2022/07/04 09:00:52;;;;;;;3.72;1.20;;;34.30;1.00;;;;;;5073589;28;20187;-72
2022/07/04 09:03:19;;;;;;;5.65;1.52;;;33.40;1.00;;;;;;5080593;28;20255;-72
2022/07/04 09:05:45;;;;;;;6.50;1.33;;;32.80;1.00;;;;;;5092965;28;20212;-71
2022/07/04 09:08:11;;;;;;;4.03;1.40;;;32.20;1.00;;;;;;5092138;28;20584;-72
2022/07/04 09:10:37;;;;;;;3.63;2.15;;;33.30;1.00;;;;;;5093152;28;20180;-73
2022/07/04 09:13:05;;;;;;;1.33;1.10;;;34.20;1.00;;;;;;5092980;28;20245;-72
2022/07/04 09:15:31;;;;;;;2.83;1.30;;;33.90;1.00;;;;;;5093633;28;20211;-72
2022/07/04 09:18:01;;;;;;;2.67;1.15;;;33.80;1.00;;;;;;5093180;28;20182;-72
2022/07/04 09:20:28;;;;;;;3.70;1.50;;;33.70;1.00;;;;;;5093262;28;20183;-71
2022/07/04 09:22:54;;;;;;;3.60;1.15;;;33.10;1.30;;;;;;5092749;28;20182;-72
2022/07/04 09:25:21;;;;;;;2.78;1.23;;;33.70;1.00;;;;;;5093172;28;20172;-72
2022/07/04 09:27:52;;;;;;;1.88;1.20;;;33.70;1.00;;;;;;5092683;28;20255;-71
2022/07/04 09:30:26;;;;;;;4.40;1.60;;;32.60;1.80;;;;;;5090933;28;20160;-74
2022/07/04 09:32:59;;;;;;;1.42;0.98;;;33.20;2.90;;;;;;5093450;28;20229;-71
2022/07/04 09:35:27;;;;;;;2.78;1.30;;;31.90;2.90;;;;;;5092220;28;20207;-74
2022/07/04 09:37:55;;;;;;;2.78;1.60;;;32.40;5.50;;;;;;5091802;28;20582;-72
2022/07/04 09:40:23;;;;;;;1.70;1.13;;;32.00;4.70;;;;;;5092697;28;20221;-73
2022/07/04 09:42:49;;;;;;;2.42;1.27;;;33.00;5.80;;;;;;5092977;28;20203;-72
2022/07/04 09:45:15;;;;;;;4.03;1.60;;;33.30;1.00;;;;;;5092695;28;20599;-71
2022/07/04 09:47:41;;;;;;;4.72;1.75;;;33.20;1.00;;;;;;5093089;28;20164;-72
2022/07/04 09:50:13;;;;;;;1.83;1.35;;;33.00;1.00;;;;;;5092235;28;20253;-72
2022/07/04 09:52:50;;;;;;;3.05;1.48;;;33.10;1.00;;;;;;5091451;28;20222;-72
2022/07/04 09:55:37;;;;;;;2.30;1.25;;;33.10;1.00;;;;;;5092024;28;20206;-71
2022/07/04 09:58:05;;;;;;;5.03;1.98;;;34.00;1.00;;;;;;5092715;28;20171;-72
2022/07/04 10:00:38;;;;;;;3.22;1.42;;;34.30;1.00;;;;;;5092375;28;20164;-71
2022/07/04 10:03:30;;;;;;;2.42;1.42;;;33.50;1.00;;;;;;5099948;28;20695;-71
2022/07/04 10:06:11;;;;;;;1.70;1.52;;;33.60;1.00;;;;;;5102685;28;20221;-72
2022/07/04 10:08:38;;;;;;;3.75;1.45;;;32.60;2.50;;;;;;5092393;28;20211;-72
2022/07/04 10:11:05;;;;;;;3.50;1.95;;;32.90;1.00;;;;;;5092676;28;20160;-72
2022/07/04 10:13:31;;;;;;;2.80;1.23;;;33.10;2.70;;;;;;5091866;28;20179;-71
2022/07/04 10:15:58;;;;;;;2.22;1.23;;;33.10;2.30;;;;;;5089391;28;20296;-71
2022/07/04 10:18:24;;;;;;;2.33;1.40;;;33.60;1.00;;;;;;5090886;28;20180;-71
2022/07/04 10:20:52;;;;;;;3.17;1.65;;;33.60;1.00;;;;;;5097260;28;20176;-72
2022/07/04 10:23:19;;;;;;;2.72;1.20;;;34.00;1.00;;;;;;5098923;28;20168;-72
2022/07/04 10:25:53;;;;;;;4.70;2.15;;;34.30;1.00;;;;;;5099405;28;20191;-72
2022/07/04 10:28:19;;;;;;;2.22;1.25;;;34.50;1.00;;;;;;5103228;28;20617;-73
2022/07/04 10:30:54;;;;;;;5.40;1.60;;;34.50;1.00;;;;;;5119528;27;20186;-71
2022/07/04 10:33:28;;;;;;;2.10;1.67;;;33.60;1.00;;;;;;5119725;27;20227;-72
2022/07/04 10:35:57;;;;;;;1.90;1.33;;;33.20;1.00;;;;;;5104675;27;20195;-71
2022/07/04 10:38:27;;;;;;;1.80;1.50;;;32.40;1.00;;;;;;5098475;28;20180;-71
2022/07/04 10:41:03;;;;;;;1.95;1.30;;;32.10;4.80;;;;;;5097578;28;20179;-69
2022/07/04 10:43:40;;;;;;;5.03;1.50;;;31.00;7.40;;;;;;5097538;28;20176;-71
2022/07/04 10:46:15;;;;;;;3.17;1.42;;;30.20;12.10;;;;;;5078804;28;20168;-70
2022/07/04 10:48:54;;;;;;;1.70;1.25;;;29.80;19.00;;;;;;5078663;28;20255;-71
2022/07/04 10:51:47;;;;;;;4.82;1.60;;;29.60;22.80;;;;;;5090105;28;20729;-72
2022/07/04 10:54:32;;;;;;;2.65;1.70;;;30.40;26.80;;;;;;5099110;28;20627;-72
2022/07/04 10:57:16;;;;;;;3.20;1.48;;;31.70;21.70;;;;;;5097889;28;20306;-72
2022/07/04 11:00:01;;;;;;;5.60;1.90;;;31.40;18.50;;;;;;5098953;28;20164;-72
2022/07/04 11:02:31;;;;;;;3.40;1.30;;;30.50;19.30;;;;;;5098885;28;20163;-73
2022/07/04 11:05:05;;;;;;;1.98;1.60;;;30.30;23.30;;;;;;5098401;28;20562;-73
2022/07/04 11:07:36;;;;;;;1.92;1.38;;;30.30;26.80;;;;;;5106193;28;20567;-72
2022/07/04 11:13:06;;;;;;;4.60;1.30;;;28.70;36.40;;;;;;5109514;28;20176;-71
2022/07/04 11:15:31;;;;;;;8.88;2.20;;;28.60;43.90;;;;;;5077989;28;20208;-73
2022/07/04 11:18:08;;;;;;;5.47;1.77;;;29.20;51.50;;;;;;5079002;28;20176;-72
2022/07/04 11:20:36;;;;;;;3.72;1.75;;;30.20;47.50;;;;;;5098543;28;20652;-72
2022/07/04 11:23:06;;;;;;;3.50;1.50;;;30.70;38.90;;;;;;5089072;28;20218;-71
2022/07/04 11:25:32;;;;;;;3.63;1.60;;;30.90;36.10;;;;;;5078260;28;20604;-71
2022/07/04 11:28:16;;;;;;;2.05;1.25;;;31.00;29.30;;;;;;5078805;28;20263;-71
2022/07/04 11:30:48;;;;;;;2.25;1.40;;;30.80;20.80;;;;;;5076661;28;20195;-69
2022/07/04 11:33:23;;;;;;;1.60;1.42;;;29.60;29.20;;;;;;5076627;28;20180;-69
2022/07/04 11:36:21;;;;;;;2.92;1.55;;;29.50;39.00;;;;;;5106729;28;20230;-70
2022/07/04 11:38:53;;;;;;;3.67;1.70;;;30.00;38.30;;;;;;5001681;28;20187;-70
2022/07/04 11:46:49;;;;;;;3.15;1.50;;;29.90;38.60;;;;;;4993164;28;20629;-69
2022/07/04 11:49:15;;;;;;;2.53;1.52;;;30.50;36.40;;;;;;4992903;28;20227;-68
2022/07/04 11:51:42;;;;;;;2.70;1.58;;;30.50;33.10;;;;;;4993341;28;20227;-69
2022/07/04 11:54:08;;;;;;;4.57;1.67;;;30.20;39.10;;;;;;4993359;28;20183;-68
2022/07/04 11:56:34;;;;;;;2.90;1.40;;;30.40;38.30;;;;;;4993472;28;20207;-69
2022/07/04 11:59:13;;;;;;;3.00;1.77;;;29.10;41.40;;;;;;4993045;28;20520;-69
2022/07/04 12:01:39;;;;;;;2.55;1.70;;;28.70;55.30;;;;;;4993149;28;20179;-70
2022/07/04 12:04:18;;;;;;;2.50;1.60;;;29.10;62.60;;;;;;4993382;28;20180;-69
2022/07/04 12:06:48;;;;;;;3.40;1.77;;;28.50;67.30;;;;;;4996658;28;20178;-70
2022/07/04 12:09:16;;;;;;;3.65;1.60;;;28.10;68.70;;;;;;4992621;28;20229;-69
2022/07/04 12:11:55;;;;;;;3.17;1.80;;;28.10;77.90;;;;;;4993355;28;20247;-70
2022/07/04 12:14:21;;;;;;;3.65;1.95;;;27.60;92.80;;;;;;5033555;28;20187;-69
2022/07/04 12:16:49;;;;;;;2.92;1.48;;;27.50;99.90;;;;;;5074701;28;20208;-70
2022/07/04 12:19:15;;;;;;;2.60;1.50;;;27.70;99.90;;;;;;5073877;28;20234;-69
2022/07/04 12:21:44;;;;;;;3.80;1.50;;;27.50;99.90;;;;;;5074104;28;20639;-69
2022/07/04 12:24:09;;;;;;;3.38;1.58;;;27.20;99.90;;;;;;5073941;28;20646;-68
2022/07/04 12:26:46;;;;;;;3.13;1.40;;;27.20;99.90;;;;;;5074434;28;20263;-70
2022/07/04 12:29:21;;;;;;;4.03;1.48;;;27.20;99.90;;;;;;5074707;28;20167;-69
2022/07/04 12:31:53;;;;;;;3.53;1.92;;;26.60;99.90;;;;;;5073380;28;20175;-69
2022/07/04 12:34:19;;;;;;;2.42;1.77;;;26.60;99.90;;;;;;5072787;28;20164;-69
2022/07/04 12:36:55;;;;;;;3.85;1.45;;;26.40;99.90;;;;;;5073778;28;20223;-69
2022/07/04 12:39:34;;;;;;;2.55;1.30;;;26.40;99.90;;;;;;5073873;28;20187;-69
2022/07/04 12:42:11;;;;;;;2.97;1.40;;;26.40;99.90;;;;;;5073893;28;20215;-68
2022/07/04 12:44:39;;;;;;;4.22;1.73;;;26.50;99.90;;;;;;5073582;28;20168;-70
2022/07/04 12:47:05;;;;;;;3.08;1.60;;;26.50;99.90;;;;;;5073323;28;20177;-69
2022/07/04 12:49:32;;;;;;;2.65;1.20;;;26.50;99.90;;;;;;5072924;28;20190;-69
2022/07/04 12:52:09;;;;;;;3.80;1.70;;;26.50;99.90;;;;;;5071859;28;20586;-70
2022/07/04 12:54:36;;;;;;;3.83;1.30;;;26.90;99.90;;;;;;5089387;28;20763;-68
2022/07/04 12:57:04;;;;;;;1.50;1.40;;;27.30;99.90;;;;;;5074362;28;20216;-70
2022/07/04 12:59:30;;;;;;;3.72;1.02;;;27.30;99.90;;;;;;5076061;28;20687;-70
2022/07/04 13:01:56;;;;;;;3.00;1.38;;;27.00;95.40;;;;;;5082193;28;20531;-68
2022/07/04 13:04:21;;;;;;;1.65;1.30;;;26.50;99.90;;;;;;5084648;28;20164;-71
2022/07/04 13:06:47;;;;;;;3.63;1.40;;;26.30;99.90;;;;;;5082408;28;20232;-70
2022/07/04 13:09:12;;;;;;;2.92;1.30;;;26.30;99.90;;;;;;5084180;28;20212;-70
2022/07/04 13:14:23;;;;;;;3.42;2.17;;;26.50;99.90;;;;;;5073491;28;20199;-69